createdAt,value
2017-05-13T00:01:20.452Z,10.40
2017-05-13T00:03:48.176Z,10.40
2017-05-13T00:06:17.180Z,10.40
2017-05-13T00:08:45.640Z,10.50
2017-05-13T00:11:14.116Z,10.40
2017-05-13T00:13:42.621Z,10.30
2017-05-13T00:16:10.364Z,10.30
2017-05-13T00:18:38.876Z,10.20
2017-05-13T00:21:07.523Z,10.10
2017-05-13T00:23:35.251Z,10.10
2017-05-13T00:26:03.032Z,10.10
2017-05-13T00:28:30.784Z,10.10
2017-05-13T00:30:58.533Z,10.10
2017-05-13T00:33:26.264Z,10.00
2017-05-13T00:35:54.020Z,10.10
2017-05-13T00:38:22.511Z,10.00
2017-05-13T00:40:50.240Z,10.00
2017-05-13T00:43:18.525Z,10.10
2017-05-13T00:45:46.256Z,10.20
2017-05-13T00:48:13.988Z,10.20
2017-05-13T00:50:41.741Z,10.20
2017-05-13T00:53:09.483Z,10.20
2017-05-13T00:55:38.765Z,10.20
2017-05-13T00:58:06.743Z,10.20
2017-05-13T01:00:34.477Z,10.20
2017-05-13T01:03:02.221Z,10.10
2017-05-13T01:05:30.691Z,10.00
2017-05-13T01:07:58.429Z,10.00
2017-05-13T01:10:26.904Z,10.00
2017-05-13T01:12:54.864Z,10.10
2017-05-13T01:15:22.597Z,10.10
2017-05-13T01:17:50.327Z,10.10
2017-05-13T01:20:18.260Z,10.20
2017-05-13T01:22:46.740Z,10.30
2017-05-13T01:25:14.468Z,10.30
2017-05-13T01:27:42.470Z,10.40
2017-05-13T01:30:10.188Z,10.30
2017-05-13T01:32:37.915Z,10.30
2017-05-13T01:35:06.400Z,10.30
2017-05-13T01:37:34.891Z,10.40
2017-05-13T01:40:02.615Z,10.40
2017-05-13T01:42:30.367Z,10.40
2017-05-13T01:44:58.095Z,10.40
2017-05-13T01:47:25.852Z,10.30
2017-05-13T01:49:54.094Z,10.30
2017-05-13T01:52:22.572Z,10.30
2017-05-13T01:54:51.048Z,10.20
2017-05-13T01:57:20.028Z,10.20
2017-05-13T01:59:47.756Z,10.10
2017-05-13T02:02:15.493Z,10.10
2017-05-13T02:04:43.253Z,10.20
2017-05-13T02:07:10.988Z,10.10
2017-05-13T02:09:38.731Z,10.20
2017-05-13T02:12:07.243Z,10.20
2017-05-13T02:14:34.971Z,10.30
2017-05-13T02:17:02.712Z,10.30
2017-05-13T02:19:31.420Z,10.30
2017-05-13T02:21:59.152Z,10.30
2017-05-13T02:24:26.879Z,10.40
2017-05-13T02:26:54.639Z,10.50
2017-05-13T02:29:22.364Z,10.50
2017-05-13T02:31:50.096Z,10.50
2017-05-13T02:34:17.871Z,10.40
2017-05-13T02:36:45.596Z,10.70
2017-05-13T02:39:13.316Z,10.70
2017-05-13T02:41:41.840Z,10.70
2017-05-13T02:44:09.567Z,10.50
2017-05-13T02:46:37.293Z,10.40
2017-05-13T02:49:06.721Z,10.40
2017-05-13T02:51:34.443Z,10.40
2017-05-13T02:54:02.171Z,10.50
2017-05-13T02:56:30.379Z,10.60
2017-05-13T02:58:58.111Z,10.80
2017-05-13T03:01:25.832Z,10.80
2017-05-13T03:03:54.077Z,10.80
2017-05-13T03:06:21.800Z,10.90
2017-05-13T03:08:49.528Z,10.90
2017-05-13T03:11:18.028Z,10.80
2017-05-13T03:13:45.756Z,10.80
2017-05-13T03:16:14.235Z,10.60
2017-05-13T03:18:43.432Z,10.60
2017-05-13T03:21:11.903Z,10.70
2017-05-13T03:23:39.632Z,10.90
2017-05-13T03:26:07.375Z,11.10
2017-05-13T03:28:35.120Z,11.10
2017-05-13T03:31:02.847Z,10.90
2017-05-13T03:33:30.928Z,10.80
2017-05-13T03:35:58.656Z,10.60
2017-05-13T03:38:27.165Z,10.50
2017-05-13T03:40:55.283Z,10.40
2017-05-13T03:43:23.005Z,10.40
2017-05-13T03:45:50.732Z,10.40
2017-05-13T03:48:18.486Z,10.40
2017-05-13T03:50:46.232Z,10.40
2017-05-13T03:53:14.042Z,10.40
2017-05-13T03:55:41.816Z,10.30
2017-05-13T03:58:09.544Z,10.40
2017-05-13T04:00:38.060Z,10.40
2017-05-13T04:03:06.144Z,10.30
2017-05-13T04:05:33.867Z,10.30
2017-05-13T04:08:01.591Z,10.40
2017-05-13T04:10:30.387Z,10.20
2017-05-13T04:12:58.120Z,10.30
2017-05-13T04:15:25.843Z,10.30
2017-05-13T04:17:53.956Z,10.30
2017-05-13T04:20:22.420Z,10.30
2017-05-13T04:22:50.140Z,10.30
2017-05-13T04:25:18.697Z,10.30
2017-05-13T04:27:46.432Z,10.20
2017-05-13T04:30:14.168Z,10.10
2017-05-13T04:32:41.926Z,10.10
2017-05-13T04:35:09.660Z,10.10
2017-05-13T04:37:37.403Z,10.10
2017-05-13T04:40:06.288Z,10.30
2017-05-13T04:42:34.765Z,10.30
2017-05-13T04:45:03.247Z,10.40
2017-05-13T04:47:30.999Z,10.50
2017-05-13T04:49:58.743Z,10.60
2017-05-13T04:52:26.471Z,10.70
2017-05-13T04:54:55.124Z,10.80
2017-05-13T04:57:22.852Z,10.90
2017-05-13T04:59:50.588Z,11.00
2017-05-13T05:02:20.158Z,11.10
2017-05-13T05:04:47.888Z,11.30
2017-05-13T05:07:15.622Z,11.30
2017-05-13T05:09:43.803Z,11.40
2017-05-13T05:12:11.532Z,11.40
2017-05-13T05:14:40.004Z,11.30
2017-05-13T05:17:07.764Z,11.30
2017-05-13T05:19:35.502Z,11.30
2017-05-13T05:22:03.227Z,11.30
2017-05-13T05:24:30.976Z,11.30
2017-05-13T05:26:58.699Z,11.30
2017-05-13T05:29:26.450Z,11.30
2017-05-13T05:31:54.856Z,11.40
2017-05-13T05:34:22.588Z,11.50
2017-05-13T05:36:50.316Z,11.80
2017-05-13T05:39:18.196Z,11.90
2017-05-13T05:41:45.930Z,11.90
2017-05-13T05:44:14.400Z,12.00
2017-05-13T05:46:43.181Z,12.20
2017-05-13T05:49:10.932Z,12.40
2017-05-13T05:51:38.666Z,12.60
2017-05-13T05:54:06.422Z,12.60
2017-05-13T05:56:34.153Z,12.80
2017-05-13T05:59:01.898Z,12.90
2017-05-13T06:01:30.396Z,12.70
2017-05-13T06:03:58.120Z,12.80
2017-05-13T06:06:25.882Z,12.90
2017-05-13T06:08:53.647Z,13.00
2017-05-13T06:11:21.387Z,13.20
2017-05-13T06:13:49.117Z,13.30
2017-05-13T06:16:16.893Z,13.30
2017-05-13T06:18:44.645Z,13.30
2017-05-13T06:21:13.122Z,13.30
2017-05-13T06:23:42.099Z,13.40
2017-05-13T06:26:09.833Z,13.30
2017-05-13T06:28:37.567Z,13.50
2017-05-13T06:31:05.316Z,13.50
2017-05-13T06:33:33.061Z,13.50
2017-05-13T06:36:01.529Z,13.60
2017-05-13T06:38:29.495Z,13.70
2017-05-13T06:40:57.212Z,13.90
2017-05-13T06:43:24.982Z,14.10
2017-05-13T06:45:52.769Z,14.40
2017-05-13T06:48:20.495Z,14.70
2017-05-13T06:50:48.248Z,14.90
2017-05-13T06:53:16.026Z,15.00
2017-05-13T06:55:43.756Z,15.30
2017-05-13T06:58:11.484Z,15.50
2017-05-13T07:00:39.252Z,15.60
2017-05-13T07:03:06.979Z,15.70
2017-05-13T07:05:36.061Z,15.70
2017-05-13T07:08:03.837Z,15.60
2017-05-13T07:10:31.555Z,15.30
2017-05-13T07:12:59.271Z,15.20
2017-05-13T07:15:27.396Z,15.10
2017-05-13T07:17:55.121Z,15.10
2017-05-13T07:20:22.848Z,15.00
2017-05-13T07:22:50.580Z,15.00
2017-05-13T07:25:18.320Z,15.20
2017-05-13T07:27:46.309Z,15.40
2017-05-13T07:30:14.034Z,15.40
2017-05-13T07:32:41.763Z,15.40
2017-05-13T07:35:10.220Z,15.40
2017-05-13T07:37:38.576Z,15.40
2017-05-13T07:40:06.299Z,15.50
2017-05-13T07:42:34.101Z,15.60
2017-05-13T07:45:01.866Z,15.70
2017-05-13T07:47:29.604Z,15.80
2017-05-13T07:49:57.342Z,15.80
2017-05-13T07:52:25.084Z,15.90
2017-05-13T07:54:53.552Z,15.80
2017-05-13T07:57:21.684Z,15.90
2017-05-13T07:59:49.432Z,16.00
2017-05-13T08:02:17.686Z,16.10
2017-05-13T08:04:45.420Z,16.20
2017-05-13T08:07:13.605Z,16.40
2017-05-13T08:09:41.331Z,16.70
2017-05-13T08:12:09.052Z,16.90
2017-05-13T08:14:37.546Z,17.00
2017-05-13T08:17:05.271Z,17.10
2017-05-13T08:19:33.016Z,17.30
2017-05-13T08:22:00.743Z,17.50
2017-05-13T08:24:28.472Z,17.50
2017-05-13T08:26:56.805Z,17.40
2017-05-13T08:29:24.538Z,17.20
2017-05-13T08:31:52.267Z,17.00
2017-05-13T08:34:19.996Z,16.90
2017-05-13T08:36:47.776Z,16.60
2017-05-13T08:39:15.500Z,16.30
2017-05-13T08:41:43.233Z,16.10
2017-05-13T08:44:12.732Z,15.80
2017-05-13T08:46:40.461Z,15.60
2017-05-13T08:49:08.195Z,15.60
2017-05-13T08:51:36.939Z,15.60
2017-05-13T08:54:04.667Z,15.50
2017-05-13T08:56:32.398Z,15.50
2017-05-13T08:59:00.440Z,15.40
2017-05-13T09:01:28.916Z,15.30
2017-05-13T09:03:56.656Z,15.30
2017-05-13T09:06:24.767Z,15.30
2017-05-13T09:08:52.758Z,15.40
2017-05-13T09:11:20.483Z,15.60
2017-05-13T09:13:48.862Z,15.60
2017-05-13T09:16:16.589Z,15.60
2017-05-13T09:18:44.319Z,15.70
2017-05-13T09:21:13.606Z,15.70
2017-05-13T09:23:42.080Z,15.70
2017-05-13T09:26:10.548Z,15.70
2017-05-13T09:28:38.322Z,15.90
2017-05-13T09:31:06.792Z,16.00
2017-05-13T09:33:34.536Z,16.20
2017-05-13T09:36:02.283Z,16.30
2017-05-13T09:38:30.031Z,16.30
2017-05-13T09:40:57.824Z,16.20
2017-05-13T09:43:25.547Z,16.10
2017-05-13T09:45:53.268Z,16.00
2017-05-13T09:48:20.999Z,16.00
2017-05-13T09:50:48.720Z,15.90
2017-05-13T09:53:17.217Z,15.80
2017-05-13T09:55:44.964Z,15.80
2017-05-13T09:58:13.428Z,15.70
2017-05-13T10:00:41.492Z,15.70
2017-05-13T10:03:09.212Z,15.60
2017-05-13T10:05:36.936Z,15.70
2017-05-13T10:08:05.556Z,15.70
2017-05-13T10:10:33.283Z,15.80
2017-05-13T10:13:01.752Z,15.90
2017-05-13T10:15:30.228Z,16.10
2017-05-13T10:17:57.952Z,16.10
2017-05-13T10:20:25.677Z,16.40
2017-05-13T10:22:54.173Z,16.70
2017-05-13T10:25:21.895Z,17.00
2017-05-13T10:27:49.624Z,17.40
2017-05-13T10:30:17.348Z,17.80
2017-05-13T10:32:45.819Z,18.10
2017-05-13T10:35:14.283Z,18.50
2017-05-13T10:37:42.005Z,18.70
2017-05-13T10:40:10.728Z,19.00
2017-05-13T10:42:38.451Z,19.60
2017-05-13T10:45:06.211Z,20.40
2017-05-13T10:47:33.935Z,20.80
2017-05-13T10:50:02.415Z,20.60
2017-05-13T10:52:31.188Z,20.40
2017-05-13T10:54:58.914Z,20.60
2017-05-13T10:57:26.708Z,20.60
2017-05-13T10:59:54.436Z,20.50
2017-05-13T11:02:22.169Z,20.40
2017-05-13T11:04:49.895Z,20.60
2017-05-13T11:07:17.630Z,21.10
2017-05-13T11:09:45.719Z,21.30
2017-05-13T11:12:13.444Z,21.40
2017-05-13T11:14:41.171Z,21.80
2017-05-13T11:17:08.896Z,22.10
2017-05-13T11:19:36.628Z,22.00
2017-05-13T11:22:04.365Z,21.70
2017-05-13T11:24:32.847Z,22.00
2017-05-13T11:27:00.568Z,22.40
2017-05-13T11:29:28.296Z,22.60
2017-05-13T11:31:56.336Z,22.70
2017-05-13T11:34:24.074Z,23.00
2017-05-13T11:36:51.808Z,23.30
2017-05-13T11:39:19.538Z,23.40
2017-05-13T11:41:49.428Z,23.40
2017-05-13T11:44:17.508Z,23.80
2017-05-13T11:46:45.264Z,24.10
2017-05-13T11:49:12.992Z,24.20
2017-05-13T11:51:40.733Z,24.60
2017-05-13T11:54:08.459Z,24.50
2017-05-13T11:56:38.065Z,24.20
2017-05-13T11:59:05.783Z,23.90
2017-05-13T12:01:33.511Z,23.50
2017-05-13T12:04:02.013Z,23.50
2017-05-13T12:06:29.755Z,23.10
2017-05-13T12:08:58.401Z,23.00
2017-05-13T12:11:26.396Z,22.80
2017-05-13T12:13:54.128Z,22.80
2017-05-13T12:16:21.863Z,22.80
2017-05-13T12:18:49.888Z,23.20
2017-05-13T12:21:17.615Z,23.30
2017-05-13T12:23:45.336Z,23.20
2017-05-13T12:26:14.801Z,23.20
2017-05-13T12:28:42.528Z,23.10
2017-05-13T12:31:10.248Z,23.00
2017-05-13T12:33:39.131Z,23.10
2017-05-13T12:36:06.865Z,23.30
2017-05-13T12:38:34.599Z,23.50
2017-05-13T12:41:02.524Z,23.60
2017-05-13T12:43:30.255Z,23.60
2017-05-13T12:45:57.988Z,23.80
2017-05-13T12:48:26.133Z,23.70
2017-05-13T12:50:54.605Z,23.50
2017-05-13T12:53:22.334Z,23.40
2017-05-13T12:55:50.089Z,23.20
2017-05-13T12:58:17.845Z,23.00
2017-05-13T13:00:45.580Z,22.90
2017-05-13T13:03:14.976Z,22.70
2017-05-13T13:05:43.444Z,22.60
2017-05-13T13:08:11.167Z,22.40
2017-05-13T13:10:39.231Z,22.30
2017-05-13T13:13:06.979Z,22.20
2017-05-13T13:15:34.709Z,22.00
2017-05-13T13:18:04.054Z,21.90
2017-05-13T13:20:31.789Z,22.00
2017-05-13T13:23:00.255Z,21.80
2017-05-13T13:25:28.184Z,21.80
2017-05-13T13:27:55.916Z,21.80
2017-05-13T13:30:23.651Z,21.70
2017-05-13T13:32:52.528Z,21.50
2017-05-13T13:35:20.256Z,21.40
2017-05-13T13:37:47.985Z,21.20
2017-05-13T13:40:15.804Z,21.10
2017-05-13T13:42:43.536Z,21.10
2017-05-13T13:45:11.811Z,21.10
2017-05-13T13:47:40.037Z,21.10
2017-05-13T13:50:07.797Z,21.10
2017-05-13T13:52:35.539Z,21.00
2017-05-13T13:55:03.537Z,20.80
2017-05-13T13:57:31.272Z,20.70
2017-05-13T13:59:59.003Z,20.70
2017-05-13T14:02:27.032Z,20.70
2017-05-13T14:04:54.792Z,20.90
2017-05-13T14:07:22.520Z,21.20
2017-05-13T14:09:50.837Z,21.50
2017-05-13T14:12:18.572Z,21.90
2017-05-13T14:14:46.299Z,22.30
2017-05-13T14:17:14.043Z,22.40
2017-05-13T14:19:42.508Z,22.70
2017-05-13T14:22:10.251Z,23.00
2017-05-13T14:24:38.108Z,23.00
2017-05-13T14:27:05.852Z,23.20
2017-05-13T14:29:33.583Z,23.10
2017-05-13T14:32:02.347Z,23.10
2017-05-13T14:34:30.072Z,23.10
2017-05-13T14:36:57.820Z,22.70
2017-05-13T14:39:25.576Z,22.60
2017-05-13T14:41:53.296Z,22.50
2017-05-13T14:44:21.048Z,22.60
2017-05-13T14:46:49.140Z,22.60
2017-05-13T14:49:17.618Z,22.40
2017-05-13T14:51:46.095Z,22.50
2017-05-13T14:54:14.396Z,22.60
2017-05-13T14:56:42.141Z,22.70
2017-05-13T14:59:09.976Z,22.80
2017-05-13T15:01:37.748Z,22.90
2017-05-13T15:04:05.493Z,23.10
2017-05-13T15:06:33.219Z,23.30
2017-05-13T15:09:01.776Z,23.70
2017-05-13T15:11:30.243Z,23.90
2017-05-13T15:13:58.033Z,24.80
2017-05-13T15:16:27.328Z,26.20
2017-05-13T15:18:55.795Z,27.40
2017-05-13T15:21:23.529Z,27.90
2017-05-13T15:23:51.672Z,26.90
2017-05-13T15:26:19.396Z,25.40
2017-05-13T15:28:47.136Z,24.00
2017-05-13T15:31:15.143Z,23.00
2017-05-13T15:33:43.607Z,22.30
2017-05-13T15:36:11.332Z,21.80
2017-05-13T15:38:39.108Z,21.40
2017-05-13T15:41:06.851Z,21.10
2017-05-13T15:43:34.592Z,20.80
2017-05-13T15:46:04.071Z,20.50
2017-05-13T15:48:32.547Z,20.20
2017-05-13T15:51:00.271Z,20.00
2017-05-13T15:53:28.046Z,19.80
2017-05-13T15:55:55.772Z,19.50
2017-05-13T15:58:23.516Z,18.70
2017-05-13T16:00:52.387Z,17.80
2017-05-13T16:03:20.107Z,17.10
2017-05-13T16:05:47.847Z,16.40
2017-05-13T16:08:15.596Z,15.90
2017-05-13T16:10:44.072Z,15.60
2017-05-13T16:13:12.540Z,15.40
2017-05-13T16:15:40.415Z,15.30
2017-05-13T16:18:08.891Z,15.20
2017-05-13T16:20:36.622Z,15.20
2017-05-13T16:23:04.884Z,15.20
2017-05-13T16:25:33.550Z,15.10
2017-05-13T16:28:01.280Z,15.10
2017-05-13T16:30:29.827Z,15.20
2017-05-13T16:32:57.557Z,15.20
2017-05-13T16:35:25.283Z,15.10
2017-05-13T16:37:53.352Z,15.20
2017-05-13T16:40:21.081Z,15.30
2017-05-13T16:42:48.856Z,15.30
2017-05-13T16:45:16.767Z,15.30
2017-05-13T16:47:44.499Z,15.40
2017-05-13T16:50:12.684Z,15.50
2017-05-13T16:52:40.419Z,15.60
2017-05-13T16:55:08.151Z,15.70
2017-05-13T16:57:35.872Z,15.80
2017-05-13T17:00:03.597Z,15.90
2017-05-13T17:02:31.385Z,16.00
2017-05-13T17:04:59.116Z,16.10
2017-05-13T17:07:26.841Z,16.20
2017-05-13T17:09:55.309Z,16.30
2017-05-13T17:12:23.041Z,16.30
2017-05-13T17:14:50.771Z,16.20
2017-05-13T17:17:18.532Z,16.10
2017-05-13T17:19:46.265Z,16.10
2017-05-13T17:22:14.739Z,16.10
2017-05-13T17:24:42.480Z,16.10
2017-05-13T17:27:10.244Z,16.10
2017-05-13T17:29:38.007Z,16.10
2017-05-13T17:32:05.735Z,16.00
2017-05-13T17:34:33.471Z,15.80
2017-05-13T17:37:01.940Z,15.70
2017-05-13T17:39:30.024Z,15.60
2017-05-13T17:41:58.496Z,15.50
2017-05-13T17:44:26.229Z,15.50
2017-05-13T17:46:53.963Z,15.60
2017-05-13T17:49:21.710Z,15.60
2017-05-13T17:51:49.668Z,15.70
2017-05-13T17:54:18.141Z,15.60
2017-05-13T17:56:46.652Z,15.60
2017-05-13T17:59:14.373Z,15.70
2017-05-13T18:01:42.101Z,15.70
2017-05-13T18:04:10.082Z,15.60
2017-05-13T18:06:38.275Z,15.60
2017-05-13T18:09:05.999Z,15.60
2017-05-13T18:11:33.724Z,15.70
2017-05-13T18:14:02.184Z,15.60
2017-05-13T18:16:29.909Z,15.60
2017-05-13T18:18:57.667Z,15.50
2017-05-13T18:21:25.412Z,15.40
2017-05-13T18:23:53.545Z,15.50
2017-05-13T18:26:21.273Z,15.50
2017-05-13T18:28:49.001Z,15.50
2017-05-13T18:31:16.721Z,15.40
2017-05-13T18:33:44.445Z,15.40
2017-05-13T18:36:12.173Z,15.50
2017-05-13T18:38:40.648Z,15.50
2017-05-13T18:41:08.660Z,15.50
2017-05-13T18:43:36.417Z,15.50
2017-05-13T18:46:04.184Z,15.50
2017-05-13T18:48:31.913Z,15.40
2017-05-13T18:51:00.894Z,15.30
2017-05-13T18:53:28.619Z,15.30
2017-05-13T18:55:56.348Z,15.50
2017-05-13T18:58:24.072Z,15.50
2017-05-13T19:00:51.799Z,15.50
2017-05-13T19:03:19.526Z,15.50
2017-05-13T19:05:48.001Z,15.40
2017-05-13T19:08:16.472Z,15.30
2017-05-13T19:10:44.944Z,15.10
2017-05-13T19:13:13.171Z,15.00
2017-05-13T19:15:40.891Z,14.90
2017-05-13T19:18:09.365Z,14.90
2017-05-13T19:20:37.083Z,14.90
2017-05-13T19:23:04.816Z,14.90
2017-05-13T19:25:32.929Z,15.00
2017-05-13T19:28:00.656Z,14.90
2017-05-13T19:30:28.382Z,14.90
2017-05-13T19:32:56.110Z,14.90
2017-05-13T19:35:23.831Z,15.00
2017-05-13T19:37:52.324Z,15.10
2017-05-13T19:40:20.068Z,15.10
2017-05-13T19:42:47.803Z,15.00
2017-05-13T19:45:15.531Z,14.90
2017-05-13T19:47:43.338Z,14.90
2017-05-13T19:50:11.061Z,14.80
2017-05-13T19:52:38.799Z,14.90
2017-05-13T19:55:07.569Z,14.90
2017-05-13T19:57:35.302Z,14.90
2017-05-13T20:00:03.033Z,14.90
2017-05-13T20:02:30.774Z,14.80
2017-05-13T20:04:59.269Z,14.80
2017-05-13T20:07:27.048Z,14.70
2017-05-13T20:09:54.771Z,14.60
2017-05-13T20:12:23.243Z,14.50
2017-05-13T20:14:51.008Z,14.50
2017-05-13T20:17:18.760Z,14.40
2017-05-13T20:19:46.544Z,14.50
2017-05-13T20:22:15.079Z,14.70
2017-05-13T20:24:42.828Z,14.70
2017-05-13T20:27:10.568Z,14.60
2017-05-13T20:29:38.331Z,14.60
2017-05-13T20:32:06.805Z,14.50
2017-05-13T20:34:34.548Z,14.50
2017-05-13T20:37:02.703Z,14.40
2017-05-13T20:39:30.465Z,14.50
2017-05-13T20:41:58.205Z,14.30
2017-05-13T20:44:27.349Z,14.20
2017-05-13T20:46:55.084Z,14.20
2017-05-13T20:49:22.812Z,14.20
2017-05-13T20:51:50.944Z,14.20
2017-05-13T20:54:18.720Z,14.20
2017-05-13T20:56:47.641Z,14.20
2017-05-13T20:59:15.423Z,14.20
2017-05-13T21:01:43.158Z,14.20
2017-05-13T21:04:10.894Z,14.20
2017-05-13T21:06:39.499Z,14.10
2017-05-13T21:09:07.969Z,14.00
2017-05-13T21:11:36.436Z,13.80
2017-05-13T21:14:04.196Z,13.70
2017-05-13T21:16:31.920Z,13.60
2017-05-13T21:18:59.667Z,13.50
2017-05-13T21:21:27.796Z,13.40
2017-05-13T21:23:55.536Z,13.40
2017-05-13T21:26:23.268Z,13.30
2017-05-13T21:28:51.397Z,13.30
2017-05-13T21:31:19.138Z,13.30
2017-05-13T21:33:46.864Z,13.30
2017-05-13T21:36:14.608Z,13.30
2017-05-13T21:38:42.347Z,13.30
2017-05-13T21:41:10.644Z,13.30
2017-05-13T21:43:39.117Z,13.20
2017-05-13T21:46:06.851Z,13.20
2017-05-13T21:48:34.580Z,13.10
2017-05-13T21:51:02.309Z,13.10
2017-05-13T21:53:30.780Z,13.00
2017-05-13T21:55:58.504Z,13.00
2017-05-13T21:58:27.950Z,13.00
2017-05-13T22:00:56.423Z,12.90
2017-05-13T22:03:24.196Z,13.10
2017-05-13T22:05:52.676Z,13.30
2017-05-13T22:08:21.154Z,13.30
2017-05-13T22:10:49.944Z,13.20
2017-05-13T22:13:18.416Z,13.20
2017-05-13T22:15:46.296Z,13.10
2017-05-13T22:18:14.772Z,13.20
2017-05-13T22:20:43.247Z,13.00
2017-05-13T22:23:13.467Z,12.90
2017-05-13T22:25:41.188Z,12.90
2017-05-13T22:28:08.921Z,13.00
2017-05-13T22:30:37.095Z,13.00
2017-05-13T22:33:04.826Z,13.00
2017-05-13T22:35:32.560Z,13.00
2017-05-13T22:38:00.307Z,12.90
2017-05-13T22:40:28.629Z,12.90
2017-05-13T22:42:56.376Z,12.90
2017-05-13T22:45:24.108Z,12.90
2017-05-13T22:47:51.832Z,12.80
2017-05-13T22:50:20.380Z,12.80
2017-05-13T22:52:48.555Z,12.80
2017-05-13T22:55:16.280Z,12.80
2017-05-13T22:57:44.028Z,12.80
2017-05-13T23:00:11.752Z,12.80
2017-05-13T23:02:39.477Z,12.80
2017-05-13T23:05:07.600Z,12.80
2017-05-13T23:07:35.329Z,12.70
2017-05-13T23:10:03.067Z,12.80
2017-05-13T23:12:30.797Z,12.90
2017-05-13T23:14:58.526Z,13.00
2017-05-13T23:17:26.571Z,13.00
2017-05-13T23:19:54.306Z,12.90
2017-05-13T23:22:22.047Z,12.90
2017-05-13T23:24:49.775Z,12.90
2017-05-13T23:27:17.504Z,12.80
2017-05-13T23:29:44.639Z,12.80
2017-05-13T23:32:14.011Z,12.70
2017-05-13T23:34:41.736Z,12.80
2017-05-13T23:37:09.476Z,12.80
2017-05-13T23:39:37.296Z,12.70
2017-05-13T23:42:05.332Z,12.70
2017-05-13T23:44:33.060Z,12.80
2017-05-13T23:47:01.532Z,12.70
2017-05-13T23:49:29.375Z,12.60
2017-05-13T23:51:57.105Z,12.50
2017-05-13T23:54:24.833Z,12.40
2017-05-13T23:56:52.895Z,12.30
2017-05-13T23:59:20.623Z,12.20
